createdAt,value
2017-09-05T00:01:50.995Z,8.23
2017-09-05T00:04:19.393Z,7.90
2017-09-05T00:06:47.877Z,14.23
2017-09-05T00:09:18.137Z,10.43
2017-09-05T00:11:52.646Z,8.53
2017-09-05T00:14:37.870Z,11.13
2017-09-05T00:20:12.207Z,10.10
2017-09-05T00:22:40.899Z,15.60
2017-09-05T00:25:09.455Z,12.10
2017-09-05T00:27:37.912Z,10.50
2017-09-05T00:30:06.355Z,10.60
2017-09-05T00:32:34.761Z,9.17
2017-09-05T00:35:03.160Z,9.63
2017-09-05T00:37:31.606Z,14.00
2017-09-05T00:40:00.097Z,12.90
2017-09-05T00:42:28.547Z,11.03
2017-09-05T00:44:56.998Z,12.73
2017-09-05T00:47:25.410Z,11.43
2017-09-05T00:49:53.944Z,11.20
2017-09-05T00:52:22.383Z,13.20
2017-09-05T00:54:51.013Z,9.70
2017-09-05T00:57:19.392Z,10.43
2017-09-05T00:59:47.820Z,12.43
2017-09-05T01:02:16.273Z,8.73
2017-09-05T01:04:44.918Z,9.00
2017-09-05T01:07:13.403Z,13.57
2017-09-05T01:09:41.814Z,13.73
2017-09-05T01:12:15.665Z,16.53
2017-09-05T01:14:44.152Z,9.30
2017-09-05T01:17:12.623Z,11.80
2017-09-05T01:19:41.124Z,12.73
2017-09-05T01:22:09.536Z,13.60
2017-09-05T01:24:37.984Z,13.77
2017-09-05T01:27:06.498Z,15.63
2017-09-05T01:29:34.942Z,10.80
2017-09-05T01:32:03.361Z,11.80
2017-09-05T01:34:31.759Z,11.50
2017-09-05T01:37:00.190Z,10.77
2017-09-05T01:39:28.692Z,9.97
2017-09-05T01:41:57.119Z,12.60
2017-09-05T01:44:25.511Z,12.47
2017-09-05T01:46:53.945Z,10.27
2017-09-05T01:49:22.329Z,11.73
2017-09-05T01:51:50.775Z,10.93
2017-09-05T01:54:19.209Z,10.43
2017-09-05T01:56:47.613Z,11.00
2017-09-05T01:59:16.015Z,11.37
2017-09-05T02:01:44.456Z,14.10
2017-09-05T02:04:12.846Z,11.80
2017-09-05T02:06:41.256Z,14.83
2017-09-05T02:09:09.681Z,17.87
2017-09-05T02:11:38.093Z,10.97
2017-09-05T02:14:06.545Z,23.63
2017-09-05T02:16:35.006Z,12.30
2017-09-05T02:19:03.435Z,13.00
2017-09-05T02:21:31.856Z,11.60
2017-09-05T02:24:00.304Z,13.30
2017-09-05T02:26:28.705Z,15.03
2017-09-05T02:28:57.104Z,10.17
2017-09-05T02:31:25.571Z,12.73
2017-09-05T02:33:53.955Z,19.00
2017-09-05T02:36:22.349Z,12.80
2017-09-05T02:38:50.799Z,15.97
2017-09-05T02:41:19.248Z,11.77
2017-09-05T02:43:47.649Z,17.20
2017-09-05T02:46:16.139Z,13.07
2017-09-05T02:48:44.527Z,9.70
2017-09-05T02:51:12.968Z,13.70
2017-09-05T02:53:41.447Z,13.37
2017-09-05T02:56:09.860Z,12.20
2017-09-05T02:58:38.246Z,12.40
2017-09-05T03:01:06.694Z,13.03
2017-09-05T03:03:35.134Z,10.47
2017-09-05T03:06:03.643Z,12.30
2017-09-05T03:08:32.108Z,17.40
2017-09-05T03:11:00.573Z,11.33
2017-09-05T03:13:29.003Z,14.13
2017-09-05T03:15:57.458Z,11.93
2017-09-05T03:18:25.958Z,11.30
2017-09-05T03:20:54.374Z,9.40
2017-09-05T03:23:22.782Z,9.83
2017-09-05T03:25:51.177Z,13.57
2017-09-05T03:28:19.612Z,13.87
2017-09-05T03:30:48.091Z,9.33
2017-09-05T03:33:16.623Z,14.57
2017-09-05T03:35:45.080Z,11.27
2017-09-05T03:38:13.504Z,9.10
2017-09-05T03:40:41.913Z,10.00
2017-09-05T03:43:10.329Z,14.23
2017-09-05T03:45:38.759Z,13.40
2017-09-05T03:48:07.202Z,10.80
2017-09-05T03:50:35.596Z,7.60
2017-09-05T03:53:04.040Z,8.17
2017-09-05T03:55:32.486Z,10.53
2017-09-05T03:58:00.885Z,12.47
2017-09-05T04:00:29.320Z,10.97
2017-09-05T04:02:57.767Z,9.20
2017-09-05T04:05:26.168Z,11.23
2017-09-05T04:07:54.615Z,14.13
2017-09-05T04:10:23.113Z,14.30
2017-09-05T04:12:51.518Z,14.90
2017-09-05T04:15:19.987Z,10.40
2017-09-05T04:17:48.495Z,14.33
2017-09-05T04:20:16.993Z,11.33
2017-09-05T04:22:45.492Z,17.27
2017-09-05T04:25:14.177Z,13.87
2017-09-05T04:27:42.607Z,9.83
2017-09-05T04:30:11.004Z,9.80
2017-09-05T04:32:39.452Z,9.43
2017-09-05T04:35:07.850Z,11.13
2017-09-05T04:37:36.327Z,11.90
2017-09-05T04:40:04.751Z,17.53
2017-09-05T04:42:33.188Z,12.73
2017-09-05T04:45:01.693Z,12.30
2017-09-05T04:47:30.228Z,13.97
2017-09-05T04:49:58.627Z,12.93
2017-09-05T04:52:27.062Z,16.17
2017-09-05T04:54:55.468Z,14.60
2017-09-05T04:57:23.949Z,17.03
2017-09-05T04:59:52.501Z,13.43
2017-09-05T05:02:21.015Z,15.70
2017-09-05T05:04:49.462Z,12.00
2017-09-05T05:07:17.887Z,11.33
2017-09-05T05:09:46.327Z,13.30
2017-09-05T05:12:14.842Z,11.10
2017-09-05T05:14:43.305Z,15.00
2017-09-05T05:17:13.782Z,16.20
2017-09-05T05:19:42.242Z,16.83
2017-09-05T05:22:10.657Z,12.70
2017-09-05T05:24:39.071Z,17.93
2017-09-05T05:27:07.521Z,13.17
2017-09-05T05:29:36.070Z,15.53
2017-09-05T05:32:04.483Z,18.20
2017-09-05T05:34:33.043Z,17.87
2017-09-05T05:37:01.567Z,15.23
2017-09-05T05:39:30.064Z,15.37
2017-09-05T05:41:58.711Z,19.60
2017-09-05T05:44:27.136Z,13.50
2017-09-05T05:46:55.542Z,11.90
2017-09-05T05:49:23.969Z,16.20
2017-09-05T05:51:52.568Z,19.50
2017-09-05T05:54:21.025Z,13.00
2017-09-05T05:56:49.472Z,17.00
2017-09-05T05:59:18.868Z,13.87
2017-09-05T06:01:47.296Z,20.73
2017-09-05T06:04:15.733Z,16.90
2017-09-05T06:06:44.136Z,16.80
2017-09-05T06:09:12.642Z,19.47
2017-09-05T06:11:41.105Z,16.57
2017-09-05T06:14:09.568Z,27.60
2017-09-05T06:16:38.010Z,15.83
2017-09-05T06:19:06.430Z,19.53
2017-09-05T06:21:34.889Z,17.20
2017-09-05T06:24:03.327Z,16.17
2017-09-05T06:26:32.777Z,19.17
2017-09-05T06:29:01.180Z,20.10
2017-09-05T06:31:29.608Z,16.13
2017-09-05T06:33:58.102Z,18.80
2017-09-05T06:36:26.569Z,15.67
2017-09-05T06:38:55.011Z,33.93
2017-09-05T06:41:23.424Z,15.67
2017-09-05T06:43:51.900Z,14.83
2017-09-05T06:46:20.387Z,19.37
2017-09-05T06:48:48.824Z,18.73
2017-09-05T06:51:17.235Z,14.07
2017-09-05T06:53:45.656Z,15.27
2017-09-05T06:56:14.244Z,24.37
2017-09-05T06:58:42.638Z,16.50
2017-09-05T07:01:11.139Z,17.13
2017-09-05T07:03:39.638Z,14.47
2017-09-05T07:06:08.028Z,16.00
2017-09-05T07:08:36.462Z,18.10
2017-09-05T07:11:04.896Z,15.97
2017-09-05T07:13:33.373Z,19.50
2017-09-05T07:16:01.834Z,15.33
2017-09-05T07:18:30.263Z,14.30
2017-09-05T07:20:58.712Z,23.00
2017-09-05T07:23:27.164Z,22.07
2017-09-05T07:25:55.723Z,20.00
2017-09-05T07:28:25.200Z,16.23
2017-09-05T07:30:53.695Z,18.53
2017-09-05T07:33:22.134Z,17.70
2017-09-05T07:35:50.564Z,21.37
2017-09-05T07:38:19.025Z,19.17
2017-09-05T07:40:47.493Z,14.40
2017-09-05T07:43:16.003Z,21.73
2017-09-05T07:45:44.436Z,20.00
2017-09-05T07:48:12.838Z,12.10
2017-09-05T07:50:41.336Z,8.40
2017-09-05T07:53:09.820Z,13.77
2017-09-05T07:55:39.209Z,9.70
2017-09-05T07:58:07.743Z,10.77
2017-09-05T08:00:36.181Z,11.47
2017-09-05T08:03:04.576Z,7.77
2017-09-05T08:05:33.021Z,8.83
2017-09-05T08:08:01.538Z,7.10
2017-09-05T08:10:29.941Z,10.57
2017-09-05T08:12:58.353Z,10.10
2017-09-05T08:15:26.803Z,7.60
2017-09-05T08:17:55.248Z,12.63
2017-09-05T08:20:23.639Z,6.33
2017-09-05T08:22:52.141Z,10.00
2017-09-05T08:25:20.548Z,8.50
2017-09-05T08:27:48.946Z,10.77
2017-09-05T08:30:17.495Z,12.83
2017-09-05T08:32:45.914Z,10.20
2017-09-05T08:35:14.350Z,9.70
2017-09-05T08:37:42.769Z,6.07
2017-09-05T08:40:11.175Z,8.00
2017-09-05T08:42:39.605Z,8.23
2017-09-05T08:45:08.366Z,13.73
2017-09-05T08:47:36.822Z,5.85
2017-09-05T08:50:05.229Z,6.90
2017-09-05T08:52:33.646Z,7.32
2017-09-05T08:55:02.052Z,8.13
2017-09-05T08:57:30.508Z,7.32
2017-09-05T08:59:58.949Z,4.90
2017-09-05T09:02:27.339Z,7.18
2017-09-05T09:04:55.752Z,5.90
2017-09-05T09:07:24.257Z,5.47
2017-09-05T09:09:52.792Z,10.07
2017-09-05T09:12:21.284Z,4.95
2017-09-05T09:14:49.691Z,5.18
2017-09-05T09:17:18.084Z,3.87
2017-09-05T09:19:46.511Z,5.62
2017-09-05T09:22:14.935Z,4.62
2017-09-05T09:24:43.327Z,6.62
2017-09-05T09:27:11.752Z,10.30
2017-09-05T09:29:40.156Z,7.65
2017-09-05T09:32:08.571Z,5.05
2017-09-05T09:34:37.177Z,4.50
2017-09-05T09:37:05.642Z,4.40
2017-09-05T09:39:34.036Z,3.80
2017-09-05T09:42:02.469Z,4.33
2017-09-05T09:44:30.871Z,4.20
2017-09-05T09:46:59.276Z,8.27
2017-09-05T09:49:27.768Z,6.73
2017-09-05T09:51:56.215Z,5.00
2017-09-05T09:54:24.634Z,4.00
2017-09-05T09:56:53.094Z,3.40
2017-09-05T09:59:21.555Z,4.40
2017-09-05T10:01:50.017Z,6.33
2017-09-05T10:04:18.444Z,3.90
2017-09-05T10:06:46.880Z,6.73
2017-09-05T10:09:15.289Z,5.37
2017-09-05T10:11:43.833Z,6.43
2017-09-05T10:14:12.276Z,7.53
2017-09-05T10:16:40.670Z,7.90
2017-09-05T10:19:09.109Z,2.73
2017-09-05T10:21:37.558Z,3.10
2017-09-05T10:24:06.066Z,3.43
2017-09-05T10:26:34.555Z,6.67
2017-09-05T10:29:02.964Z,5.57
2017-09-05T10:31:31.361Z,4.23
2017-09-05T10:33:59.768Z,2.90
2017-09-05T10:36:28.233Z,4.27
2017-09-05T10:38:56.680Z,2.50
2017-09-05T10:41:25.099Z,4.93
2017-09-05T10:43:53.510Z,3.43
2017-09-05T10:46:22.002Z,4.83
2017-09-05T10:48:50.430Z,7.83
2017-09-05T10:51:18.872Z,9.60
2017-09-05T10:53:47.312Z,5.43
2017-09-05T10:56:15.698Z,4.77
2017-09-05T10:58:44.118Z,3.73
2017-09-05T11:01:12.565Z,2.93
2017-09-05T11:03:41.016Z,3.90
2017-09-05T11:06:09.413Z,5.27
2017-09-05T11:08:37.856Z,3.57
2017-09-05T11:11:06.343Z,7.23
2017-09-05T11:13:34.873Z,3.67
2017-09-05T11:16:03.324Z,6.40
2017-09-05T11:18:31.731Z,2.37
2017-09-05T11:21:00.163Z,5.80
2017-09-05T11:23:28.555Z,4.90
2017-09-05T11:25:56.962Z,2.87
2017-09-05T11:28:25.512Z,3.83
2017-09-05T11:30:53.907Z,3.80
2017-09-05T11:33:22.320Z,2.63
2017-09-05T11:35:50.713Z,4.53
2017-09-05T11:38:19.220Z,2.77
2017-09-05T11:40:47.647Z,4.60
2017-09-05T11:43:16.189Z,5.93
2017-09-05T11:45:44.645Z,7.20
2017-09-05T11:48:13.073Z,2.83
2017-09-05T11:50:41.697Z,4.03
2017-09-05T11:53:10.222Z,3.87
2017-09-05T11:55:38.658Z,5.70
2017-09-05T11:58:07.060Z,6.23
2017-09-05T12:00:35.515Z,2.90
2017-09-05T12:03:03.955Z,4.40
2017-09-05T12:05:32.434Z,10.33
2017-09-05T12:08:00.912Z,4.83
2017-09-05T12:10:29.368Z,10.07
2017-09-05T12:12:57.772Z,5.63
2017-09-05T12:15:26.187Z,5.20
2017-09-05T12:17:54.620Z,3.20
2017-09-05T12:20:23.090Z,5.47
2017-09-05T12:22:51.560Z,12.90
2017-09-05T12:25:20.010Z,7.97
2017-09-05T12:27:48.454Z,4.47
2017-09-05T12:30:17.017Z,7.20
2017-09-05T12:32:45.469Z,8.37
2017-09-05T12:35:13.953Z,3.20
2017-09-05T12:37:42.425Z,5.07
2017-09-05T12:40:10.861Z,5.87
2017-09-05T12:42:39.377Z,10.50
2017-09-05T12:45:07.831Z,5.07
2017-09-05T12:47:36.223Z,11.93
2017-09-05T12:50:04.643Z,7.97
2017-09-05T12:52:33.074Z,8.83
2017-09-05T12:55:01.514Z,3.67
2017-09-05T12:57:29.914Z,8.87
2017-09-05T12:59:58.298Z,4.83
2017-09-05T13:02:26.735Z,8.37
2017-09-05T13:04:55.147Z,5.00
2017-09-05T13:07:23.565Z,6.27
2017-09-05T13:09:52.172Z,6.57
2017-09-05T13:12:20.551Z,7.27
2017-09-05T13:14:48.989Z,4.43
2017-09-05T13:17:17.411Z,4.63
2017-09-05T13:19:45.907Z,6.83
2017-09-05T13:22:15.230Z,9.63
2017-09-05T13:24:43.760Z,8.77
2017-09-05T13:27:12.289Z,11.47
2017-09-05T13:29:40.674Z,6.40
2017-09-05T13:32:09.110Z,4.07
2017-09-05T13:34:37.544Z,3.60
2017-09-05T13:37:06.019Z,6.43
2017-09-05T13:39:34.492Z,6.23
2017-09-05T13:42:02.925Z,6.90
2017-09-05T13:44:31.337Z,14.63
2017-09-05T13:46:59.819Z,3.23
2017-09-05T13:52:03.013Z,5.10
2017-09-05T13:54:31.422Z,5.80
2017-09-05T13:56:59.957Z,4.90
2017-09-05T13:59:28.412Z,2.30
2017-09-05T14:01:56.813Z,7.13
2017-09-05T14:04:25.316Z,5.30
2017-09-05T14:06:53.713Z,7.70
2017-09-05T14:09:22.108Z,6.63
2017-09-05T14:11:50.601Z,3.83
2017-09-05T14:14:19.072Z,5.10
2017-09-05T14:16:47.472Z,3.87
2017-09-05T14:19:15.912Z,3.60
2017-09-05T14:21:44.374Z,4.70
2017-09-05T14:24:12.929Z,3.13
2017-09-05T14:26:41.412Z,3.17
2017-09-05T14:29:09.827Z,4.03
2017-09-05T14:31:38.307Z,6.00
2017-09-05T14:34:06.732Z,9.07
2017-09-05T14:36:35.207Z,2.93
2017-09-05T14:39:03.758Z,5.97
2017-09-05T14:41:32.228Z,4.80
2017-09-05T14:44:00.660Z,7.70
2017-09-05T14:46:29.168Z,3.10
2017-09-05T14:48:57.662Z,5.63
2017-09-05T14:51:26.245Z,13.40
2017-09-05T14:53:54.726Z,10.43
2017-09-05T14:56:23.154Z,4.77
2017-09-05T14:58:51.939Z,3.83
2017-09-05T15:01:20.536Z,3.10
2017-09-05T15:03:48.976Z,4.03
2017-09-05T15:06:17.495Z,3.70
2017-09-05T15:08:45.892Z,6.07
2017-09-05T15:11:14.335Z,11.07
2017-09-05T15:13:42.809Z,8.23
2017-09-05T15:16:11.217Z,7.03
2017-09-05T15:18:39.696Z,5.87
2017-09-05T15:21:08.224Z,5.47
2017-09-05T15:23:36.617Z,10.47
2017-09-05T15:26:05.060Z,9.17
2017-09-05T15:28:33.702Z,9.43
2017-09-05T15:31:02.451Z,9.90
2017-09-05T15:33:30.859Z,6.60
2017-09-05T15:35:59.810Z,11.67
2017-09-05T15:38:28.305Z,5.53
2017-09-05T15:40:56.741Z,8.30
2017-09-05T15:43:25.180Z,6.97
2017-09-05T15:45:53.726Z,8.13
2017-09-05T15:48:22.202Z,4.27
2017-09-05T15:50:50.605Z,7.57
2017-09-05T15:53:19.031Z,3.17
2017-09-05T15:55:47.527Z,5.13
2017-09-05T15:58:16.001Z,19.13
2017-09-05T16:00:44.427Z,9.97
2017-09-05T16:03:12.889Z,25.33
2017-09-05T16:05:41.320Z,6.83
2017-09-05T16:08:09.809Z,9.27
2017-09-05T16:10:38.205Z,9.40
2017-09-05T16:13:06.708Z,9.33
2017-09-05T16:15:35.131Z,8.03
2017-09-05T16:18:03.553Z,15.47
2017-09-05T16:20:32.844Z,5.77
2017-09-05T16:23:01.327Z,9.10
2017-09-05T16:25:30.589Z,4.87
2017-09-05T16:27:59.029Z,6.83
2017-09-05T16:30:27.429Z,9.47
2017-09-05T16:32:55.832Z,9.10
2017-09-05T16:35:24.317Z,5.60
2017-09-05T16:37:52.715Z,6.37
2017-09-05T16:40:21.304Z,9.37
2017-09-05T16:42:49.743Z,11.13
2017-09-05T16:45:18.241Z,8.67
2017-09-05T16:47:46.747Z,12.17
2017-09-05T16:50:15.204Z,11.20
2017-09-05T16:52:43.682Z,13.00
2017-09-05T16:55:12.141Z,9.40
2017-09-05T16:57:40.679Z,11.30
2017-09-05T17:00:09.063Z,5.90
2017-09-05T17:02:37.629Z,6.40
2017-09-05T17:05:06.073Z,8.20
2017-09-05T17:07:34.513Z,7.60
2017-09-05T17:10:02.972Z,9.03
2017-09-05T17:12:31.394Z,7.20
2017-09-05T17:14:59.798Z,7.37
2017-09-05T17:17:28.205Z,10.57
2017-09-05T17:19:56.637Z,13.37
2017-09-05T17:22:25.054Z,10.20
2017-09-05T17:24:53.518Z,14.90
2017-09-05T17:27:22.158Z,8.33
2017-09-05T17:29:51.704Z,7.13
2017-09-05T17:32:20.106Z,12.30
2017-09-05T17:34:48.492Z,16.30
2017-09-05T17:37:18.081Z,9.67
2017-09-05T17:39:46.505Z,7.40
2017-09-05T17:42:15.060Z,5.57
2017-09-05T17:44:43.524Z,8.30
2017-09-05T17:47:12.239Z,6.80
2017-09-05T17:49:41.277Z,14.63
2017-09-05T17:52:10.099Z,6.47
2017-09-05T17:54:38.677Z,6.57
2017-09-05T17:57:07.358Z,6.80
2017-09-05T17:59:36.203Z,7.20
2017-09-05T18:02:04.660Z,6.77
2017-09-05T18:04:33.179Z,5.97
2017-09-05T18:07:01.748Z,10.10
2017-09-05T18:09:31.271Z,12.90
2017-09-05T18:11:59.787Z,10.70
2017-09-05T18:14:28.195Z,9.83
2017-09-05T18:16:56.646Z,16.97
2017-09-05T18:19:25.048Z,10.10
2017-09-05T18:21:53.477Z,14.17
2017-09-05T18:24:21.916Z,16.63
2017-09-05T18:26:50.843Z,7.73
2017-09-05T18:29:19.412Z,10.10
2017-09-05T18:31:48.384Z,10.93
2017-09-05T18:34:16.803Z,18.13
2017-09-05T18:36:47.442Z,20.37
2017-09-05T18:39:15.997Z,21.53
2017-09-05T18:41:44.860Z,20.57
2017-09-05T18:44:13.346Z,18.73
2017-09-05T18:46:41.731Z,20.33
2017-09-05T18:49:11.374Z,18.80
2017-09-05T18:51:39.791Z,11.97
2017-09-05T18:54:08.342Z,16.57
2017-09-05T18:56:36.877Z,17.37
2017-09-05T18:59:05.367Z,20.80
2017-09-05T19:01:33.935Z,15.37
2017-09-05T19:04:02.425Z,15.60
2017-09-05T19:06:30.836Z,15.13
2017-09-05T19:08:59.258Z,14.73
2017-09-05T19:11:27.754Z,11.27
2017-09-05T19:13:56.208Z,18.67
2017-09-05T19:16:24.632Z,11.40
2017-09-05T19:18:53.052Z,14.93
2017-09-05T19:21:21.540Z,13.17
2017-09-05T19:23:50.087Z,22.80
2017-09-05T19:26:18.597Z,12.70
2017-09-05T19:28:47.146Z,8.97
2017-09-05T19:31:15.537Z,12.80
2017-09-05T19:33:43.958Z,10.43
2017-09-05T19:36:16.555Z,9.97
2017-09-05T19:38:45.009Z,12.97
2017-09-05T19:41:13.402Z,10.17
2017-09-05T19:43:41.933Z,12.10
2017-09-05T19:46:10.660Z,23.93
2017-09-05T19:48:39.170Z,11.90
2017-09-05T19:51:07.590Z,22.17
2017-09-05T19:53:35.973Z,12.73
2017-09-05T19:56:04.468Z,16.70
2017-09-05T19:58:33.009Z,11.50
2017-09-05T20:01:01.547Z,12.37
2017-09-05T20:03:30.034Z,11.60
2017-09-05T20:05:58.428Z,12.60
2017-09-05T20:08:26.817Z,8.73
2017-09-05T20:10:55.222Z,8.50
2017-09-05T20:13:23.657Z,8.87
2017-09-05T20:15:52.103Z,8.67
2017-09-05T20:18:20.507Z,8.60
2017-09-05T20:20:48.979Z,9.20
2017-09-05T20:23:17.547Z,6.83
2017-09-05T20:25:46.135Z,8.07
2017-09-05T20:28:14.532Z,8.53
2017-09-05T20:30:42.946Z,5.97
2017-09-05T20:33:11.366Z,4.70
2017-09-05T20:35:39.801Z,7.90
2017-09-05T20:38:08.446Z,4.33
2017-09-05T20:40:37.142Z,5.13
2017-09-05T20:43:05.668Z,3.57
2017-09-05T20:45:34.290Z,4.37
2017-09-05T20:48:02.944Z,3.53
2017-09-05T20:50:31.419Z,9.40
2017-09-05T20:53:00.236Z,3.60
2017-09-05T20:55:28.856Z,3.67
2017-09-05T20:57:57.480Z,10.60
2017-09-05T21:00:25.902Z,8.43
2017-09-05T21:02:54.278Z,5.43
2017-09-05T21:05:22.686Z,3.50
2017-09-05T21:07:51.103Z,3.87
2017-09-05T21:10:19.529Z,5.93
2017-09-05T21:12:47.928Z,5.53
2017-09-05T21:15:16.414Z,2.40
2017-09-05T21:17:44.864Z,3.80
2017-09-05T21:20:13.434Z,2.30
2017-09-05T21:22:41.936Z,4.87
2017-09-05T21:25:10.350Z,3.87
2017-09-05T21:27:38.740Z,3.37
2017-09-05T21:30:07.192Z,1.90
2017-09-05T21:32:35.673Z,2.00
2017-09-05T21:35:04.097Z,2.80
2017-09-05T21:37:32.680Z,1.70
2017-09-05T21:40:01.179Z,1.93
2017-09-05T21:42:31.024Z,3.80
2017-09-05T21:44:59.765Z,3.00
2017-09-05T21:47:28.157Z,2.10
2017-09-05T21:49:56.653Z,2.30
2017-09-05T21:52:25.238Z,2.43
2017-09-05T21:54:53.643Z,5.30
2017-09-05T21:57:22.110Z,3.13
2017-09-05T21:59:50.524Z,2.03
2017-09-05T22:02:18.944Z,1.90
2017-09-05T22:04:47.347Z,2.97
2017-09-05T22:07:15.742Z,8.93
2017-09-05T22:09:44.204Z,2.50
2017-09-05T22:12:12.699Z,2.70
2017-09-05T22:14:46.729Z,1.90
2017-09-05T22:17:19.011Z,6.23
2017-09-05T22:19:53.003Z,2.60
2017-09-05T22:22:21.440Z,1.80
2017-09-05T22:24:55.449Z,2.70
2017-09-05T22:30:34.982Z,6.83
2017-09-05T22:33:03.555Z,6.93
2017-09-05T22:35:31.970Z,3.97
2017-09-05T22:38:00.364Z,5.17
2017-09-05T22:40:29.543Z,3.07
2017-09-05T22:42:57.981Z,1.87
2017-09-05T22:45:26.476Z,2.33
2017-09-05T22:47:54.930Z,2.03
2017-09-05T22:50:23.510Z,4.87
2017-09-05T22:52:51.893Z,3.77
2017-09-05T22:55:20.310Z,4.17
2017-09-05T22:57:48.821Z,7.33
2017-09-05T23:00:17.214Z,1.73
2017-09-05T23:02:45.649Z,2.70
2017-09-05T23:05:14.036Z,4.33
2017-09-05T23:07:42.473Z,4.33
2017-09-05T23:10:10.981Z,2.37
2017-09-05T23:12:39.481Z,3.10
2017-09-05T23:15:07.852Z,2.07
2017-09-05T23:17:36.274Z,5.03
2017-09-05T23:20:05.436Z,2.53
2017-09-05T23:22:33.837Z,2.33
2017-09-05T23:25:02.302Z,1.97
2017-09-05T23:27:30.720Z,2.07
2017-09-05T23:29:59.109Z,2.40
2017-09-05T23:32:27.721Z,3.10
2017-09-05T23:34:56.201Z,4.90
2017-09-05T23:37:24.674Z,5.03
2017-09-05T23:39:53.119Z,2.60
2017-09-05T23:42:21.523Z,2.60
2017-09-05T23:44:49.974Z,3.90
2017-09-05T23:47:18.402Z,4.73
2017-09-05T23:49:46.877Z,6.40
2017-09-05T23:52:15.330Z,2.97
2017-09-05T23:54:43.715Z,4.27
2017-09-05T23:57:12.116Z,5.10
2017-09-05T23:59:40.550Z,6.00
